createdAt,value
2018-07-05T00:00:20.481Z,18.80
2018-07-05T00:01:21.134Z,18.83
2018-07-05T00:02:20.763Z,18.86
2018-07-05T00:03:20.070Z,18.89
2018-07-05T00:04:20.749Z,18.89
2018-07-05T00:05:44.383Z,18.90
2018-07-05T00:06:44.869Z,18.90
2018-07-05T00:07:44.612Z,18.89
2018-07-05T00:08:45.035Z,18.89
2018-07-05T00:09:45.182Z,18.88
2018-07-05T00:10:45.000Z,18.88
2018-07-05T00:12:06.022Z,18.84
2018-07-05T00:13:06.679Z,18.83
2018-07-05T00:14:06.103Z,18.81
2018-07-05T00:15:06.827Z,18.83
2018-07-05T00:16:06.154Z,18.84
2018-07-05T00:17:06.906Z,18.86
2018-07-05T00:18:06.315Z,18.84
2018-07-05T00:19:07.378Z,18.81
2018-07-05T00:20:06.647Z,18.81
2018-07-05T00:21:07.078Z,18.80
2018-07-05T00:22:06.759Z,18.77
2018-07-05T00:23:06.363Z,18.73
2018-07-05T00:24:06.873Z,18.71
2018-07-05T00:25:06.420Z,18.66
2018-07-05T00:26:28.285Z,18.63
2018-07-05T00:27:29.029Z,18.58
2018-07-05T00:28:28.921Z,18.53
2018-07-05T00:29:28.669Z,18.52
2018-07-05T00:30:29.290Z,18.49
2018-07-05T00:31:28.632Z,18.47
2018-07-05T00:32:28.232Z,18.44
2018-07-05T00:33:28.586Z,18.41
2018-07-05T00:34:28.061Z,18.40
2018-07-05T00:35:49.989Z,18.38
2018-07-05T00:36:50.331Z,18.35
2018-07-05T00:37:50.712Z,18.33
2018-07-05T00:39:11.379Z,18.33
2018-07-05T00:40:11.621Z,18.29
2018-07-05T00:41:11.804Z,18.28
2018-07-05T00:42:12.306Z,18.23
2018-07-05T00:43:11.764Z,18.23
2018-07-05T00:44:13.550Z,18.23
2018-07-05T00:45:12.018Z,18.25
2018-07-05T00:46:33.080Z,18.23
2018-07-05T00:47:33.422Z,18.20
2018-07-05T00:48:32.999Z,18.18
2018-07-05T00:49:54.694Z,18.13
2018-07-05T00:50:55.005Z,18.08
2018-07-05T00:51:54.779Z,18.04
2018-07-05T00:52:55.534Z,18.05
2018-07-05T00:54:16.262Z,18.07
2018-07-05T00:55:16.614Z,18.08
2018-07-05T00:56:17.198Z,18.05
2018-07-05T00:57:37.989Z,18.10
2018-07-05T00:58:38.415Z,18.10
2018-07-05T00:59:38.252Z,18.05
2018-07-05T01:00:39.197Z,18.03
2018-07-05T01:01:38.840Z,18.00
2018-07-05T01:02:38.527Z,17.97
2018-07-05T01:03:59.325Z,17.92
2018-07-05T01:04:59.719Z,17.90
2018-07-05T01:06:00.421Z,17.87
2018-07-05T01:06:59.980Z,17.86
2018-07-05T01:07:59.817Z,17.85
2018-07-05T01:09:00.214Z,17.85
2018-07-05T01:09:59.819Z,17.85
2018-07-05T01:11:00.480Z,17.83
2018-07-05T01:11:59.674Z,17.83
2018-07-05T01:13:00.221Z,17.82
2018-07-05T01:13:59.672Z,17.76
2018-07-05T01:15:00.083Z,17.71
2018-07-05T01:15:59.721Z,17.70
2018-07-05T01:17:00.161Z,17.70
2018-07-05T01:17:59.755Z,17.71
2018-07-05T01:19:21.707Z,17.74
2018-07-05T01:20:22.220Z,17.74
2018-07-05T01:21:21.700Z,17.70
2018-07-05T01:22:22.392Z,17.68
2018-07-05T01:23:22.089Z,17.64
2018-07-05T01:24:22.566Z,17.64
2018-07-05T01:25:22.084Z,17.67
2018-07-05T01:26:21.467Z,17.71
2018-07-05T01:27:22.217Z,17.76
2018-07-05T01:28:21.839Z,17.78
2018-07-05T01:29:22.080Z,17.78
2018-07-05T01:30:22.437Z,17.79
2018-07-05T01:31:43.467Z,17.79
2018-07-05T01:32:44.012Z,17.82
2018-07-05T01:33:43.430Z,17.82
2018-07-05T01:34:43.994Z,17.83
2018-07-05T01:35:43.450Z,17.82
2018-07-05T01:36:44.322Z,17.80
2018-07-05T01:37:43.792Z,17.80
2018-07-05T01:38:44.068Z,17.76
2018-07-05T01:39:43.374Z,17.74
2018-07-05T01:40:43.586Z,17.72
2018-07-05T01:41:44.003Z,17.68
2018-07-05T01:42:43.428Z,17.70
2018-07-05T01:43:44.011Z,17.67
2018-07-05T01:45:04.562Z,17.63
2018-07-05T01:46:05.274Z,17.60
2018-07-05T01:47:04.682Z,17.57
2018-07-05T01:48:05.276Z,17.56
2018-07-05T01:49:04.687Z,17.54
2018-07-05T01:50:04.959Z,17.57
2018-07-05T01:51:05.255Z,17.54
2018-07-05T01:52:04.584Z,17.56
2018-07-05T01:53:05.497Z,17.52
2018-07-05T01:54:05.069Z,17.51
2018-07-05T01:55:04.875Z,17.48
2018-07-05T01:56:04.443Z,17.45
2018-07-05T01:57:04.808Z,17.42
2018-07-05T01:58:04.345Z,17.39
2018-07-05T01:59:04.800Z,17.36
2018-07-05T02:00:05.457Z,17.34
2018-07-05T02:01:05.000Z,17.33
2018-07-05T02:02:04.534Z,17.26
2018-07-05T02:03:04.906Z,17.26
2018-07-05T02:04:05.471Z,17.23
2018-07-05T02:05:04.805Z,17.22
2018-07-05T02:06:05.161Z,17.19
2018-07-05T02:07:04.739Z,17.16
2018-07-05T02:08:05.313Z,17.16
2018-07-05T02:09:04.853Z,17.14
2018-07-05T02:10:05.484Z,17.12
2018-07-05T02:11:05.049Z,17.11
2018-07-05T02:12:05.243Z,17.09
2018-07-05T02:13:05.141Z,17.09
2018-07-05T02:14:04.991Z,17.08
2018-07-05T02:15:04.621Z,17.08
2018-07-05T02:16:05.096Z,17.08
2018-07-05T02:17:04.728Z,17.08
2018-07-05T02:18:26.456Z,17.04
2018-07-05T02:19:27.216Z,16.99
2018-07-05T02:20:26.884Z,16.99
2018-07-05T02:21:27.425Z,16.99
2018-07-05T02:22:27.026Z,16.96
2018-07-05T02:23:26.666Z,16.94
2018-07-05T02:24:27.214Z,16.90
2018-07-05T02:25:26.751Z,16.89
2018-07-05T02:26:27.465Z,16.89
2018-07-05T02:27:27.188Z,16.90
2018-07-05T02:28:26.968Z,16.89
2018-07-05T02:29:26.552Z,16.84
2018-07-05T02:30:26.972Z,16.83
2018-07-05T02:31:26.516Z,16.79
2018-07-05T02:32:26.880Z,16.78
2018-07-05T02:33:48.393Z,16.75
2018-07-05T02:35:31.798Z,16.78
2018-07-05T02:36:32.484Z,16.79
2018-07-05T02:37:31.924Z,16.74
2018-07-05T02:38:32.515Z,16.71
2018-07-05T02:39:31.977Z,16.69
2018-07-05T02:40:32.667Z,16.66
2018-07-05T02:41:32.565Z,16.64
2018-07-05T02:42:32.073Z,16.61
2018-07-05T02:43:31.645Z,16.60
2018-07-05T02:44:53.799Z,16.57
2018-07-05T02:45:54.667Z,16.54
2018-07-05T02:46:54.102Z,16.51
2018-07-05T02:47:54.791Z,16.47
2018-07-05T02:48:54.778Z,16.42
2018-07-05T02:49:54.270Z,16.39
2018-07-05T02:51:18.086Z,16.36
2018-07-05T02:52:40.071Z,16.42
2018-07-05T02:53:40.731Z,16.47
2018-07-05T02:54:40.066Z,16.49
2018-07-05T02:56:02.022Z,16.43
2018-07-05T02:57:02.532Z,16.49
2018-07-05T02:58:01.902Z,16.43
2018-07-05T02:59:02.619Z,16.46
2018-07-05T03:00:02.339Z,16.43
2018-07-05T03:01:02.885Z,16.39
2018-07-05T03:02:02.693Z,16.36
2018-07-05T03:03:02.652Z,16.36
2018-07-05T03:04:02.755Z,16.35
2018-07-05T03:05:02.577Z,16.31
2018-07-05T03:06:02.646Z,16.31
2018-07-05T03:07:45.725Z,16.32
2018-07-05T03:08:45.687Z,16.31
2018-07-05T03:09:45.568Z,16.31
2018-07-05T03:10:45.896Z,16.29
2018-07-05T03:11:48.089Z,16.28
2018-07-05T03:13:31.693Z,16.26
2018-07-05T03:14:33.384Z,16.23
2018-07-05T03:15:32.005Z,16.26
2018-07-05T03:16:32.249Z,16.28
2018-07-05T03:17:53.322Z,16.28
2018-07-05T03:18:54.318Z,16.26
2018-07-05T03:19:54.182Z,16.24
2018-07-05T03:20:53.823Z,16.21
2018-07-05T03:21:53.821Z,16.23
2018-07-05T03:22:53.313Z,16.21
2018-07-05T03:23:53.951Z,16.21
2018-07-05T03:24:53.715Z,16.26
2018-07-05T03:25:53.549Z,16.28
2018-07-05T03:27:15.214Z,16.21
2018-07-05T03:28:15.887Z,16.23
2018-07-05T03:29:15.587Z,16.23
2018-07-05T03:30:16.115Z,16.24
2018-07-05T03:31:16.010Z,16.23
2018-07-05T03:32:37.000Z,16.17
2018-07-05T03:33:37.526Z,16.16
2018-07-05T03:34:37.028Z,16.17
2018-07-05T03:35:37.947Z,16.16
2018-07-05T03:36:37.713Z,16.16
2018-07-05T03:37:37.689Z,16.12
2018-07-05T03:38:37.283Z,16.12
2018-07-05T03:39:58.980Z,16.12
2018-07-05T03:40:59.961Z,16.10
2018-07-05T03:41:59.798Z,16.12
2018-07-05T03:42:59.277Z,16.15
2018-07-05T03:44:00.254Z,16.16
2018-07-05T03:44:59.855Z,16.16
2018-07-05T03:45:59.500Z,16.16
2018-07-05T03:47:20.391Z,16.20
2018-07-05T03:48:21.067Z,16.21
2018-07-05T03:49:20.632Z,16.20
2018-07-05T03:50:21.535Z,16.17
2018-07-05T03:51:21.491Z,16.15
2018-07-05T03:52:21.348Z,16.16
2018-07-05T03:53:42.412Z,16.17
2018-07-05T03:54:42.982Z,16.17
2018-07-05T03:55:42.762Z,16.20
2018-07-05T03:56:43.393Z,16.20
2018-07-05T03:57:43.174Z,16.20
2018-07-05T03:58:42.858Z,16.17
2018-07-05T03:59:42.650Z,16.20
2018-07-05T04:00:43.445Z,16.16
2018-07-05T04:01:43.278Z,16.13
2018-07-05T04:02:42.764Z,16.12
2018-07-05T04:03:43.418Z,16.15
2018-07-05T04:04:42.795Z,16.17
2018-07-05T04:05:42.505Z,16.20
2018-07-05T04:06:43.494Z,16.24
2018-07-05T04:07:43.305Z,16.33
2018-07-05T04:08:43.092Z,16.36
2018-07-05T04:09:42.763Z,16.32
2018-07-05T04:10:43.522Z,16.26
2018-07-05T04:11:43.004Z,16.24
2018-07-05T04:12:42.535Z,16.20
2018-07-05T04:14:05.030Z,16.17
2018-07-05T04:15:05.794Z,16.15
2018-07-05T04:16:05.632Z,16.13
2018-07-05T04:17:05.504Z,16.17
2018-07-05T04:18:05.346Z,16.17
2018-07-05T04:19:05.004Z,16.20
2018-07-05T04:20:05.542Z,16.16
2018-07-05T04:21:07.916Z,16.16
2018-07-05T04:22:13.579Z,16.15
2018-07-05T04:23:05.298Z,16.16
2018-07-05T04:24:05.280Z,16.17
2018-07-05T04:25:05.234Z,16.20
2018-07-05T04:26:05.095Z,16.20
2018-07-05T04:27:04.789Z,16.21
2018-07-05T04:28:05.571Z,16.20
2018-07-05T04:29:05.091Z,16.20
2018-07-05T04:30:06.811Z,16.21
2018-07-05T04:31:05.362Z,16.21
2018-07-05T04:32:05.237Z,16.21
2018-07-05T04:33:05.389Z,16.23
2018-07-05T04:34:04.889Z,16.21
2018-07-05T04:35:05.947Z,16.26
2018-07-05T04:36:05.372Z,16.31
2018-07-05T04:37:04.790Z,16.33
2018-07-05T04:38:05.389Z,16.39
2018-07-05T04:39:04.814Z,16.42
2018-07-05T04:40:05.807Z,16.43
2018-07-05T04:41:05.467Z,16.46
2018-07-05T04:42:05.107Z,16.50
2018-07-05T04:43:04.619Z,16.50
2018-07-05T04:44:05.363Z,16.53
2018-07-05T04:45:04.979Z,16.54
2018-07-05T04:46:26.877Z,16.58
2018-07-05T04:47:27.716Z,16.64
2018-07-05T04:48:27.475Z,16.69
2018-07-05T04:49:27.228Z,16.72
2018-07-05T04:50:27.929Z,16.78
2018-07-05T04:51:33.956Z,16.79
2018-07-05T04:52:27.448Z,16.87
2018-07-05T04:53:27.081Z,16.93
2018-07-05T04:54:27.648Z,16.96
2018-07-05T04:55:27.159Z,16.96
2018-07-05T04:56:27.778Z,16.99
2018-07-05T04:57:27.132Z,17.02
2018-07-05T04:58:27.773Z,17.02
2018-07-05T04:59:27.372Z,17.06
2018-07-05T05:00:27.214Z,17.14
2018-07-05T05:01:27.112Z,17.22
2018-07-05T05:02:27.847Z,17.24
2018-07-05T05:03:27.569Z,17.29
2018-07-05T05:04:27.310Z,17.36
2018-07-05T05:05:27.149Z,17.38
2018-07-05T05:06:26.914Z,17.39
2018-07-05T05:07:27.457Z,17.41
2018-07-05T05:08:27.428Z,17.44
2018-07-05T05:09:48.330Z,17.48
2018-07-05T05:10:48.827Z,17.51
2018-07-05T05:11:49.399Z,17.54
2018-07-05T05:12:49.076Z,17.60
2018-07-05T05:13:48.930Z,17.65
2018-07-05T05:14:48.547Z,17.67
2018-07-05T05:15:49.787Z,17.71
2018-07-05T05:16:48.398Z,17.72
2018-07-05T05:17:49.323Z,17.78
2018-07-05T05:18:49.353Z,17.80
2018-07-05T05:19:49.345Z,17.82
2018-07-05T05:20:49.613Z,17.82
2018-07-05T05:22:11.554Z,17.87
2018-07-05T05:23:12.377Z,17.90
2018-07-05T05:24:12.348Z,17.95
2018-07-05T05:25:13.739Z,18.03
2018-07-05T05:26:11.425Z,18.07
2018-07-05T05:27:11.180Z,18.10
2018-07-05T05:28:11.772Z,18.18
2018-07-05T05:29:11.752Z,18.29
2018-07-05T05:30:11.419Z,18.33
2018-07-05T05:31:12.236Z,18.35
2018-07-05T05:32:11.801Z,18.38
2018-07-05T05:33:11.385Z,18.41
2018-07-05T05:34:33.595Z,18.50
2018-07-05T05:35:34.364Z,18.58
2018-07-05T05:36:33.936Z,18.62
2018-07-05T05:37:33.594Z,18.66
2018-07-05T05:38:34.689Z,18.70
2018-07-05T05:39:56.639Z,18.73
2018-07-05T05:40:57.511Z,18.75
2018-07-05T05:41:58.410Z,18.73
2018-07-05T05:42:57.556Z,18.78
2018-07-05T05:43:57.327Z,18.81
2018-07-05T05:44:57.069Z,18.88
2018-07-05T05:45:56.783Z,18.89
2018-07-05T05:46:57.611Z,18.93
2018-07-05T05:47:58.406Z,19.00
2018-07-05T05:48:57.657Z,19.12
2018-07-05T05:49:57.305Z,19.15
2018-07-05T05:50:56.881Z,19.22
2018-07-05T05:51:57.502Z,19.26
2018-07-05T05:52:58.038Z,19.29
2018-07-05T05:53:57.396Z,19.37
2018-07-05T05:54:58.430Z,19.45
2018-07-05T05:56:18.290Z,19.58
2018-07-05T05:57:19.046Z,19.64
2018-07-05T05:58:18.727Z,19.71
2018-07-05T05:59:18.990Z,19.82
2018-07-05T06:00:19.899Z,19.91
2018-07-05T06:01:18.652Z,20.02
2018-07-05T06:02:18.392Z,20.14
2018-07-05T06:03:19.297Z,20.25
2018-07-05T06:04:19.777Z,20.32
2018-07-05T06:05:18.575Z,20.41
2018-07-05T06:06:19.552Z,20.52
2018-07-05T06:08:26.248Z,20.77
2018-07-05T06:09:27.151Z,20.81
2018-07-05T06:10:26.880Z,20.93
2018-07-05T06:11:28.772Z,21.03
2018-07-05T06:12:27.003Z,21.18
2018-07-05T06:13:27.049Z,21.25
2018-07-05T06:14:27.978Z,21.33
2018-07-05T06:15:26.503Z,21.46
2018-07-05T06:16:26.513Z,21.54
2018-07-05T06:17:26.738Z,21.62
2018-07-05T06:18:26.720Z,21.67
2018-07-05T06:19:27.478Z,21.73
2018-07-05T06:20:26.920Z,21.85
2018-07-05T06:21:26.943Z,22.00
2018-07-05T06:22:27.702Z,22.10
2018-07-05T06:23:26.478Z,22.22
2018-07-05T06:24:26.228Z,22.33
2018-07-05T06:25:27.132Z,22.44
2018-07-05T06:26:26.883Z,22.53
2018-07-05T06:27:26.734Z,22.53
2018-07-05T06:28:26.689Z,22.54
2018-07-05T06:29:26.642Z,22.55
2018-07-05T06:30:26.429Z,22.54
2018-07-05T06:31:26.231Z,22.70
2018-07-05T06:32:27.060Z,22.73
2018-07-05T06:33:26.730Z,22.78
2018-07-05T06:35:09.391Z,22.94
2018-07-05T06:36:10.107Z,23.05
2018-07-05T06:38:14.624Z,23.13
2018-07-05T06:39:15.507Z,23.27
2018-07-05T06:40:15.427Z,23.44
2018-07-05T06:41:15.102Z,23.55
2018-07-05T06:42:15.241Z,23.63
2018-07-05T06:43:15.244Z,23.62
2018-07-05T06:44:15.116Z,23.65
2018-07-05T06:45:14.884Z,23.73
2018-07-05T06:46:14.870Z,23.81
2018-07-05T06:47:14.752Z,23.99
2018-07-05T06:48:46.868Z,24.14
2018-07-05T06:49:47.627Z,24.08
2018-07-05T06:50:47.437Z,24.06
2018-07-05T06:51:46.979Z,24.14
2018-07-05T06:52:47.623Z,24.16
2018-07-05T06:53:47.372Z,24.18
2018-07-05T06:54:47.314Z,24.33
2018-07-05T06:55:47.606Z,24.43
2018-07-05T06:57:09.115Z,24.54
2018-07-05T06:58:09.728Z,24.60
2018-07-05T06:59:09.885Z,24.70
2018-07-05T07:00:31.334Z,24.84
2018-07-05T07:01:31.978Z,24.98
2018-07-05T07:02:31.982Z,24.93
2018-07-05T07:03:55.135Z,24.73
2018-07-05T07:04:55.783Z,24.78
2018-07-05T07:05:55.396Z,24.86
2018-07-05T07:06:55.042Z,24.95
2018-07-05T07:07:55.882Z,25.08
2018-07-05T07:08:55.945Z,25.03
2018-07-05T07:09:55.840Z,25.14
2018-07-05T07:10:55.845Z,25.18
2018-07-05T07:11:55.340Z,25.29
2018-07-05T07:12:56.134Z,25.54
2018-07-05T07:13:55.917Z,25.66
2018-07-05T07:14:55.803Z,25.70
2018-07-05T07:15:56.080Z,25.80
2018-07-05T07:16:55.888Z,25.68
2018-07-05T07:17:56.087Z,25.55
2018-07-05T07:18:55.713Z,25.65
2018-07-05T07:19:55.739Z,25.78
2018-07-05T07:20:55.615Z,25.90
2018-07-05T07:21:55.616Z,25.99
2018-07-05T07:22:55.664Z,26.15
2018-07-05T07:23:55.288Z,26.36
2018-07-05T07:24:56.102Z,26.44
2018-07-05T07:25:55.984Z,26.55
2018-07-05T07:26:56.062Z,26.62
2018-07-05T07:27:56.113Z,26.71
2018-07-05T07:28:55.708Z,26.70
2018-07-05T07:29:55.708Z,26.78
2018-07-05T07:30:55.606Z,26.80
2018-07-05T07:31:55.705Z,26.85
2018-07-05T07:32:55.414Z,26.93
2018-07-05T07:34:39.108Z,27.08
2018-07-05T07:35:39.895Z,27.03
2018-07-05T07:36:40.130Z,27.08
2018-07-05T07:38:23.399Z,27.44
2018-07-05T07:39:24.017Z,27.45
2018-07-05T07:40:23.762Z,27.45
2018-07-05T07:41:23.551Z,27.54
2018-07-05T07:42:45.562Z,27.67
2018-07-05T07:43:46.526Z,27.86
2018-07-05T07:44:46.264Z,27.60
2018-07-05T07:45:46.098Z,27.58
2018-07-05T07:46:45.805Z,27.64
2018-07-05T07:48:07.793Z,27.63
2018-07-05T07:49:07.768Z,27.63
2018-07-05T07:50:07.785Z,27.80
2018-07-05T07:51:07.456Z,28.01
2018-07-05T07:52:08.200Z,28.04
2018-07-05T07:53:08.645Z,28.14
2018-07-05T07:54:07.470Z,28.05
2018-07-05T07:55:09.261Z,28.26
2018-07-05T07:56:17.782Z,28.19
2018-07-05T07:57:10.139Z,28.35
2018-07-05T07:58:07.767Z,28.54
2018-07-05T07:59:07.677Z,28.54
2018-07-05T08:00:07.633Z,28.44
2018-07-05T08:01:08.549Z,28.59
2018-07-05T08:02:08.450Z,28.60
2018-07-05T08:03:08.256Z,28.70
2018-07-05T08:04:07.818Z,28.82
2018-07-05T08:05:07.563Z,28.75
2018-07-05T08:06:08.290Z,28.82
2018-07-05T08:07:08.038Z,29.05
2018-07-05T08:08:07.791Z,29.27
2018-07-05T08:09:07.681Z,29.44
2018-07-05T08:10:07.419Z,29.54
2018-07-05T08:11:08.498Z,29.63
2018-07-05T08:12:08.151Z,29.57
2018-07-05T08:13:08.042Z,29.53
2018-07-05T08:14:07.808Z,29.65
2018-07-05T08:15:07.342Z,29.73
2018-07-05T08:16:08.038Z,29.98
2018-07-05T08:17:08.775Z,30.05
2018-07-05T08:18:07.377Z,30.02
2018-07-05T08:19:08.076Z,30.10
2018-07-05T08:20:07.993Z,30.12
2018-07-05T08:21:08.368Z,30.08
2018-07-05T08:22:08.242Z,30.13
2018-07-05T08:23:08.754Z,30.21
2018-07-05T08:24:07.631Z,30.44
2018-07-05T08:25:08.784Z,30.59
2018-07-05T08:26:07.515Z,30.54
2018-07-05T08:27:08.299Z,30.34
2018-07-05T08:28:08.038Z,30.35
2018-07-05T08:29:08.042Z,30.59
2018-07-05T08:30:07.911Z,30.84
2018-07-05T08:31:29.312Z,31.14
2018-07-05T08:32:29.375Z,31.34
2018-07-05T08:33:29.197Z,31.31
2018-07-05T08:34:30.160Z,31.15
2018-07-05T08:35:29.829Z,31.07
2018-07-05T08:36:51.488Z,31.28
2018-07-05T08:37:52.055Z,31.54
2018-07-05T08:38:54.238Z,31.59
2018-07-05T08:39:51.859Z,31.40
2018-07-05T08:40:51.881Z,31.22
2018-07-05T08:42:34.511Z,31.05
2018-07-05T08:43:35.928Z,31.18
2018-07-05T08:44:34.571Z,31.12
2018-07-05T08:45:35.328Z,31.20
2018-07-05T08:46:35.156Z,31.07
2018-07-05T08:47:34.828Z,30.92
2018-07-05T08:48:34.701Z,31.03
2018-07-05T08:49:34.458Z,31.15
2018-07-05T08:50:56.122Z,31.15
2018-07-05T08:51:56.643Z,31.17
2018-07-05T08:53:17.341Z,31.14
2018-07-05T08:54:18.132Z,31.31
2018-07-05T08:55:17.691Z,31.20
2018-07-05T08:56:18.543Z,31.24
2018-07-05T08:57:18.080Z,31.43
2018-07-05T08:58:17.928Z,31.59
2018-07-05T08:59:17.820Z,31.51
2018-07-05T09:00:18.674Z,31.65
2018-07-05T09:01:17.457Z,31.77
2018-07-05T09:02:18.519Z,31.90
2018-07-05T09:03:18.189Z,32.03
2018-07-05T09:04:17.733Z,31.96
2018-07-05T09:05:17.468Z,31.84
2018-07-05T09:06:18.155Z,31.92
2018-07-05T09:07:40.737Z,31.85
2018-07-05T09:08:41.614Z,31.89
2018-07-05T09:09:41.730Z,31.89
2018-07-05T09:11:03.597Z,32.00
2018-07-05T09:12:26.280Z,32.09
2018-07-05T09:13:25.996Z,32.08
2018-07-05T09:14:26.582Z,32.19
2018-07-05T09:15:26.855Z,32.27
2018-07-05T09:16:26.350Z,32.11
2018-07-05T09:17:26.129Z,31.93
2018-07-05T09:18:26.064Z,31.70
2018-07-05T09:19:26.696Z,31.80
2018-07-05T09:20:26.190Z,31.77
2018-07-05T09:21:27.051Z,31.93
2018-07-05T09:22:28.201Z,31.89
2018-07-05T09:23:27.847Z,31.59
2018-07-05T09:24:26.663Z,31.52
2018-07-05T09:25:26.329Z,31.74
2018-07-05T09:26:26.230Z,32.04
2018-07-05T09:27:47.169Z,32.19
2018-07-05T09:28:47.739Z,32.23
2018-07-05T09:29:47.653Z,32.41
2018-07-05T09:30:47.318Z,32.53
2018-07-05T09:32:31.255Z,32.73
2018-07-05T09:33:31.985Z,32.86
2018-07-05T09:34:31.887Z,32.95
2018-07-05T09:35:31.862Z,32.87
2018-07-05T09:36:56.561Z,33.01
2018-07-05T09:37:56.748Z,33.05
2018-07-05T09:38:56.608Z,33.08
2018-07-05T09:40:17.603Z,33.34
2018-07-05T09:41:18.292Z,33.45
2018-07-05T09:42:18.159Z,33.55
2018-07-05T09:43:39.788Z,33.62
2018-07-05T09:44:40.068Z,33.81
2018-07-05T09:45:39.818Z,33.90
2018-07-05T09:47:00.995Z,33.76
2018-07-05T09:48:01.690Z,33.77
2018-07-05T09:49:01.520Z,33.79
2018-07-05T09:50:22.942Z,33.69
2018-07-05T09:51:22.626Z,33.68
2018-07-05T09:52:23.502Z,33.57
2018-07-05T09:53:23.200Z,33.43
2018-07-05T09:54:22.789Z,33.52
2018-07-05T09:55:22.472Z,33.57
2018-07-05T09:56:23.335Z,33.43
2018-07-05T09:57:22.922Z,33.45
2018-07-05T09:59:05.084Z,33.28
2018-07-05T10:00:06.172Z,33.32
2018-07-05T10:01:05.827Z,33.31
2018-07-05T10:02:05.370Z,33.24
2018-07-05T10:03:05.845Z,33.45
2018-07-05T10:04:05.561Z,33.59
2018-07-05T10:05:05.363Z,33.69
2018-07-05T10:06:28.043Z,33.95
2018-07-05T10:07:28.695Z,34.20
2018-07-05T10:08:28.655Z,34.32
2018-07-05T10:09:28.589Z,34.48
2018-07-05T10:10:28.362Z,34.67
2018-07-05T10:11:27.991Z,34.55
2018-07-05T10:12:50.178Z,34.43
2018-07-05T10:13:51.397Z,33.95
2018-07-05T10:14:50.301Z,33.55
2018-07-05T10:15:50.918Z,33.32
2018-07-05T10:16:50.776Z,33.08
2018-07-05T10:17:50.486Z,33.20
2018-07-05T10:18:50.397Z,33.57
2018-07-05T10:19:51.048Z,33.86
2018-07-05T10:20:50.685Z,34.23
2018-07-05T10:22:34.269Z,34.70
2018-07-05T10:23:34.286Z,34.92
2018-07-05T10:24:34.292Z,35.26
2018-07-05T10:25:33.907Z,35.42
2018-07-05T10:26:33.930Z,35.45
2018-07-05T10:27:34.638Z,34.99
2018-07-05T10:28:34.488Z,34.77
2018-07-05T10:29:35.676Z,34.54
2018-07-05T10:30:34.240Z,34.52
2018-07-05T10:31:33.979Z,34.57
2018-07-05T10:32:56.403Z,34.67
2018-07-05T10:33:57.062Z,34.90
2018-07-05T10:34:57.002Z,34.86
2018-07-05T10:35:56.462Z,34.50
2018-07-05T10:36:56.287Z,34.51
2018-07-05T10:37:57.144Z,34.40
2018-07-05T10:38:56.947Z,34.40
2018-07-05T10:39:56.561Z,34.30
2018-07-05T10:40:56.872Z,34.24
2018-07-05T10:41:56.444Z,34.38
2018-07-05T10:42:57.018Z,34.52
2018-07-05T10:43:56.848Z,34.74
2018-07-05T10:45:00.961Z,34.60
2018-07-05T10:45:57.211Z,34.43
2018-07-05T10:47:21.143Z,34.45
2018-07-05T10:48:25.284Z,34.47
2018-07-05T10:49:24.812Z,34.43
2018-07-05T10:50:20.953Z,34.71
2018-07-05T10:51:20.874Z,34.64
2018-07-05T10:52:21.255Z,34.61
2018-07-05T10:53:21.154Z,34.52
2018-07-05T10:54:20.771Z,34.45
2018-07-05T10:55:20.550Z,34.66
2018-07-05T10:56:21.341Z,34.67
2018-07-05T10:57:43.461Z,34.73
2018-07-05T10:59:04.834Z,34.61
2018-07-05T11:00:05.843Z,34.61
2018-07-05T11:01:05.685Z,34.67
2018-07-05T11:02:05.654Z,34.93
2018-07-05T11:03:26.992Z,34.92
2018-07-05T11:04:48.349Z,34.54
2018-07-05T11:05:49.054Z,34.55
2018-07-05T11:07:31.926Z,35.00
2018-07-05T11:08:32.586Z,35.00
2018-07-05T11:09:54.239Z,34.80
2018-07-05T11:10:55.065Z,34.77
2018-07-05T11:11:54.524Z,34.92
2018-07-05T11:13:16.007Z,34.97
2018-07-05T11:14:38.912Z,34.74
2018-07-05T11:15:39.453Z,34.62
2018-07-05T11:16:39.221Z,34.74
2018-07-05T11:17:39.094Z,34.38
2018-07-05T11:18:40.318Z,34.10
2018-07-05T11:19:39.196Z,34.21
2018-07-05T11:20:40.270Z,34.10
2018-07-05T11:21:38.990Z,34.18
2018-07-05T11:22:38.962Z,34.52
2018-07-05T11:23:38.723Z,34.85
2018-07-05T11:25:45.229Z,35.27
2018-07-05T11:26:45.969Z,35.37
2018-07-05T11:27:45.669Z,35.41
2018-07-05T11:28:45.304Z,35.31
2018-07-05T11:29:46.062Z,35.48
2018-07-05T11:30:45.909Z,35.46
2018-07-05T11:31:45.897Z,35.34
2018-07-05T11:33:09.254Z,35.37
2018-07-05T11:34:09.259Z,35.56
2018-07-05T11:35:31.637Z,35.90
2018-07-05T11:36:32.256Z,35.78
2018-07-05T11:37:31.779Z,35.71
2018-07-05T11:38:32.804Z,35.61
2018-07-05T11:39:54.044Z,35.86
2018-07-05T11:40:53.853Z,36.04
2018-07-05T11:41:54.386Z,36.04
2018-07-05T11:42:54.257Z,36.27
2018-07-05T11:43:54.382Z,36.55
2018-07-05T11:45:15.299Z,36.88
2018-07-05T11:46:16.346Z,36.80
2018-07-05T11:47:16.249Z,35.60
2018-07-05T11:48:37.215Z,35.37
2018-07-05T11:49:37.990Z,35.39
2018-07-05T11:50:38.092Z,35.56
2018-07-05T11:51:38.558Z,35.51
2018-07-05T11:52:39.162Z,35.31
2018-07-05T11:53:38.272Z,35.42
2018-07-05T11:54:38.208Z,35.78
2018-07-05T11:55:38.129Z,35.86
2018-07-05T11:56:37.935Z,35.42
2018-07-05T11:57:38.229Z,35.00
2018-07-05T11:58:38.124Z,34.97
2018-07-05T11:59:38.042Z,34.18
2018-07-05T12:00:40.850Z,33.89
2018-07-05T12:01:37.407Z,34.32
2018-07-05T12:02:38.368Z,34.52
2018-07-05T12:03:38.036Z,34.52
2018-07-05T12:04:59.058Z,34.73
2018-07-05T12:05:59.784Z,35.04
2018-07-05T12:06:59.395Z,35.41
2018-07-05T12:07:59.274Z,35.53
2018-07-05T12:09:00.130Z,35.80
2018-07-05T12:09:59.875Z,36.12
2018-07-05T12:10:59.840Z,36.04
2018-07-05T12:12:23.092Z,36.00
2018-07-05T12:13:22.815Z,35.85
2018-07-05T12:14:22.866Z,35.41
2018-07-05T12:15:22.348Z,35.52
2018-07-05T12:16:22.372Z,35.90
2018-07-05T12:17:21.999Z,36.08
2018-07-05T12:18:23.052Z,35.97
2018-07-05T12:19:22.973Z,35.71
2018-07-05T12:20:23.271Z,35.61
2018-07-05T12:21:22.511Z,35.90
2018-07-05T12:22:22.402Z,36.20
2018-07-05T12:23:22.303Z,36.31
2018-07-05T12:24:21.883Z,36.47
2018-07-05T12:25:22.677Z,36.65
2018-07-05T12:26:22.854Z,36.55
2018-07-05T12:27:22.777Z,36.42
2018-07-05T12:28:22.468Z,36.68
2018-07-05T12:29:24.242Z,36.92
2018-07-05T12:30:22.111Z,37.01
2018-07-05T12:31:23.030Z,37.03
2018-07-05T12:32:22.714Z,36.99
2018-07-05T12:33:22.554Z,37.13
2018-07-05T12:34:22.274Z,37.02
2018-07-05T12:35:21.939Z,37.02
2018-07-05T12:36:22.830Z,37.14
2018-07-05T12:37:23.108Z,37.36
2018-07-05T12:38:24.264Z,37.70
2018-07-05T12:39:22.225Z,37.59
2018-07-05T12:40:22.305Z,37.47
2018-07-05T12:41:22.089Z,37.47
2018-07-05T12:42:21.870Z,37.20
2018-07-05T12:43:23.503Z,36.72
2018-07-05T12:44:43.552Z,36.25
2018-07-05T12:45:45.428Z,36.42
2018-07-05T12:46:43.919Z,36.57
2018-07-05T12:47:44.802Z,36.81
2018-07-05T12:48:44.704Z,36.65
2018-07-05T12:49:44.317Z,36.45
2018-07-05T12:50:44.781Z,35.89
2018-07-05T12:52:05.362Z,35.92
2018-07-05T12:53:05.916Z,35.90
2018-07-05T12:54:05.709Z,36.25
2018-07-05T12:55:06.983Z,36.52
2018-07-05T12:56:06.236Z,36.77
2018-07-05T12:57:49.082Z,36.42
2018-07-05T12:58:50.033Z,36.55
2018-07-05T12:59:50.891Z,36.30
2018-07-05T13:00:49.539Z,35.93
2018-07-05T13:02:13.213Z,35.74
2018-07-05T13:03:12.875Z,35.98
2018-07-05T13:04:36.085Z,36.33
2018-07-05T13:05:35.719Z,36.55
2018-07-05T13:06:35.549Z,36.81
2018-07-05T13:07:35.588Z,36.79
2018-07-05T13:08:36.479Z,36.96
2018-07-05T13:09:36.774Z,36.98
2018-07-05T13:10:36.081Z,36.99
2018-07-05T13:11:36.046Z,37.06
2018-07-05T13:12:35.849Z,37.25
2018-07-05T13:13:37.379Z,37.17
2018-07-05T13:14:59.329Z,36.89
2018-07-05T13:16:21.356Z,36.30
2018-07-05T13:17:21.325Z,35.82
2018-07-05T13:18:21.209Z,35.92
2018-07-05T13:19:22.311Z,36.24
2018-07-05T13:20:21.931Z,36.12
2018-07-05T13:21:21.712Z,36.08
2018-07-05T13:22:21.636Z,36.20
2018-07-05T13:23:21.348Z,36.23
2018-07-05T13:24:21.855Z,36.36
2018-07-05T13:25:22.870Z,36.55
2018-07-05T13:26:21.866Z,36.77
2018-07-05T13:27:22.821Z,36.79
2018-07-05T13:28:21.328Z,36.74
2018-07-05T13:29:21.215Z,36.81
2018-07-05T13:30:21.827Z,36.73
2018-07-05T13:31:22.634Z,36.83
2018-07-05T13:32:21.442Z,36.70